sensor_id;sensor_type;location;lat;lon;timestamp;temperature;humidity
20204;DHT22;10261;49.010;12.034;2022-09-27T00:00:39;13.80;99.90
20204;DHT22;10261;49.010;12.034;2022-09-27T00:01:42;13.90;99.90
20204;DHT22;10261;49.010;12.034;2022-09-27T00:02:45;13.90;99.90
20204;DHT22;10261;49.010;12.034;2022-09-27T00:03:53;13.90;99.90
20204;DHT22;10261;49.010;12.034;2022-09-27T00:04:57;13.90;99.90
20204;DHT22;10261;49.010;12.034;2022-09-27T00:06:04;13.90;99.90
20204;DHT22;10261;49.010;12.034;2022-09-27T00:07:08;13.90;99.90
20204;DHT22;10261;49.010;12.034;2022-09-27T00:08:11;14.00;99.90
20204;DHT22;10261;49.010;12.034;2022-09-27T00:09:15;14.00;99.90
20204;DHT22;10261;49.010;12.034;2022-09-27T00:10:18;14.00;99.90
20204;DHT22;10261;49.010;12.034;2022-09-27T00:11:24;14.10;99.90
20204;DHT22;10261;49.010;12.034;2022-09-27T00:12:27;14.00;99.90
20204;DHT22;10261;49.010;12.034;2022-09-27T00:13:30;14.00;99.90
20204;DHT22;10261;49.010;12.034;2022-09-27T00:14:33;14.00;99.90
20204;DHT22;10261;49.010;12.034;2022-09-27T00:15:36;14.00;99.90
20204;DHT22;10261;49.010;12.034;2022-09-27T00:16:39;14.00;99.90
20204;DHT22;10261;49.010;12.034;2022-09-27T00:17:42;14.00;99.90
20204;DHT22;10261;49.010;12.034;2022-09-27T00:19:10;14.10;99.90
20204;DHT22;10261;49.010;12.034;2022-09-27T00:20:14;14.10;99.90
20204;DHT22;10261;49.010;12.034;2022-09-27T00:21:16;14.10;99.90
20204;DHT22;10261;49.010;12.034;2022-09-27T00:22:19;14.10;99.90
20204;DHT22;10261;49.010;12.034;2022-09-27T00:23:21;14.10;99.90
20204;DHT22;10261;49.010;12.034;2022-09-27T00:24:24;14.10;99.90
20204;DHT22;10261;49.010;12.034;2022-09-27T00:25:26;14.10;99.90
20204;DHT22;10261;49.010;12.034;2022-09-27T00:26:29;14.10;99.90
20204;DHT22;10261;49.010;12.034;2022-09-27T00:27:32;14.20;99.90
20204;DHT22;10261;49.010;12.034;2022-09-27T00:28:35;14.20;99.90
20204;DHT22;10261;49.010;12.034;2022-09-27T00:29:37;14.20;99.90
20204;DHT22;10261;49.010;12.034;2022-09-27T00:30:41;14.30;99.90
20204;DHT22;10261;49.010;12.034;2022-09-27T00:31:43;14.30;99.90
20204;DHT22;10261;49.010;12.034;2022-09-27T00:32:46;14.30;99.90
20204;DHT22;10261;49.010;12.034;2022-09-27T00:33:49;14.20;99.90
20204;DHT22;10261;49.010;12.034;2022-09-27T00:34:54;14.20;99.90
20204;DHT22;10261;49.010;12.034;2022-09-27T00:36:03;14.10;99.90
20204;DHT22;10261;49.010;12.034;2022-09-27T00:37:06;14.10;99.90
20204;DHT22;10261;49.010;12.034;2022-09-27T00:38:09;14.10;99.90
20204;DHT22;10261;49.010;12.034;2022-09-27T00:39:12;14.10;99.90
20204;DHT22;10261;49.010;12.034;2022-09-27T00:40:15;14.10;99.90
20204;DHT22;10261;49.010;12.034;2022-09-27T00:41:22;14.10;99.90
20204;DHT22;10261;49.010;12.034;2022-09-27T00:42:24;14.10;99.90
20204;DHT22;10261;49.010;12.034;2022-09-27T00:43:43;14.20;99.90
20204;DHT22;10261;49.010;12.034;2022-09-27T00:45:15;14.10;99.90
20204;DHT22;10261;49.010;12.034;2022-09-27T00:46:22;14.20;99.90
20204;DHT22;10261;49.010;12.034;2022-09-27T00:47:31;14.20;99.90
20204;DHT22;10261;49.010;12.034;2022-09-27T00:48:36;14.20;99.90
20204;DHT22;10261;49.010;12.034;2022-09-27T00:49:41;14.10;99.90
20204;DHT22;10261;49.010;12.034;2022-09-27T00:50:50;14.20;99.90
20204;DHT22;10261;49.010;12.034;2022-09-27T00:51:57;14.10;99.90
20204;DHT22;10261;49.010;12.034;2022-09-27T00:53:09;14.10;99.90
20204;DHT22;10261;49.010;12.034;2022-09-27T00:54:16;14.00;99.90
20204;DHT22;10261;49.010;12.034;2022-09-27T00:55:24;14.00;99.90
20204;DHT22;10261;49.010;12.034;2022-09-27T00:56:29;14.00;99.90
20204;DHT22;10261;49.010;12.034;2022-09-27T00:57:33;13.90;99.90
20204;DHT22;10261;49.010;12.034;2022-09-27T00:58:38;13.90;99.90
20204;DHT22;10261;49.010;12.034;2022-09-27T00:59:45;13.80;99.90
20204;DHT22;10261;49.010;12.034;2022-09-27T01:00:53;13.80;99.90
20204;DHT22;10261;49.010;12.034;2022-09-27T01:01:57;13.80;99.90
20204;DHT22;10261;49.010;12.034;2022-09-27T01:03:00;13.80;99.90
20204;DHT22;10261;49.010;12.034;2022-09-27T01:04:07;13.80;99.90
20204;DHT22;10261;49.010;12.034;2022-09-27T01:05:11;13.80;99.90
20204;DHT22;10261;49.010;12.034;2022-09-27T01:06:18;13.90;99.90
20204;DHT22;10261;49.010;12.034;2022-09-27T01:07:22;13.80;99.90
20204;DHT22;10261;49.010;12.034;2022-09-27T01:08:25;13.90;99.90
20204;DHT22;10261;49.010;12.034;2022-09-27T01:09:28;13.80;99.90
20204;DHT22;10261;49.010;12.034;2022-09-27T01:10:34;13.70;99.90
20204;DHT22;10261;49.010;12.034;2022-09-27T01:11:42;13.70;99.90
20204;DHT22;10261;49.010;12.034;2022-09-27T01:12:55;13.80;99.90
20204;DHT22;10261;49.010;12.034;2022-09-27T01:14:10;13.80;99.90
20204;DHT22;10261;49.010;12.034;2022-09-27T01:15:22;13.70;99.90
20204;DHT22;10261;49.010;12.034;2022-09-27T01:16:31;13.70;99.90
20204;DHT22;10261;49.010;12.034;2022-09-27T01:17:45;13.60;99.90
20204;DHT22;10261;49.010;12.034;2022-09-27T01:19:01;13.70;99.90
20204;DHT22;10261;49.010;12.034;2022-09-27T01:21:43;13.60;99.90
20204;DHT22;10261;49.010;12.034;2022-09-27T01:22:57;13.70;99.90
20204;DHT22;10261;49.010;12.034;2022-09-27T01:25:49;13.70;99.90
20204;DHT22;10261;49.010;12.034;2022-09-27T01:27:21;13.70;99.90
20204;DHT22;10261;49.010;12.034;2022-09-27T01:28:45;13.70;99.90
20204;DHT22;10261;49.010;12.034;2022-09-27T01:31:21;13.80;99.90
20204;DHT22;10261;49.010;12.034;2022-09-27T01:32:30;13.70;99.90
20204;DHT22;10261;49.010;12.034;2022-09-27T01:33:41;13.60;99.90
20204;DHT22;10261;49.010;12.034;2022-09-27T01:34:50;13.60;99.90
20204;DHT22;10261;49.010;12.034;2022-09-27T01:36:07;13.60;99.90
20204;DHT22;10261;49.010;12.034;2022-09-27T01:37:21;13.60;99.90
20204;DHT22;10261;49.010;12.034;2022-09-27T01:38:30;13.50;99.90
20204;DHT22;10261;49.010;12.034;2022-09-27T01:39:45;13.50;99.90
20204;DHT22;10261;49.010;12.034;2022-09-27T01:40:56;13.50;99.90
20204;DHT22;10261;49.010;12.034;2022-09-27T01:42:05;13.50;99.90
20204;DHT22;10261;49.010;12.034;2022-09-27T01:43:16;13.40;99.90
20204;DHT22;10261;49.010;12.034;2022-09-27T01:44:32;13.50;99.90
20204;DHT22;10261;49.010;12.034;2022-09-27T01:45:39;13.40;99.90
20204;DHT22;10261;49.010;12.034;2022-09-27T01:46:48;13.40;99.90
20204;DHT22;10261;49.010;12.034;2022-09-27T01:47:55;13.40;99.90
20204;DHT22;10261;49.010;12.034;2022-09-27T01:48:59;13.40;99.90
20204;DHT22;10261;49.010;12.034;2022-09-27T01:50:08;13.40;99.90
20204;DHT22;10261;49.010;12.034;2022-09-27T01:51:16;13.40;99.90
20204;DHT22;10261;49.010;12.034;2022-09-27T01:52:23;13.40;99.90
20204;DHT22;10261;49.010;12.034;2022-09-27T01:53:30;13.40;99.90
20204;DHT22;10261;49.010;12.034;2022-09-27T01:54:39;13.40;99.90
20204;DHT22;10261;49.010;12.034;2022-09-27T01:55:43;13.40;99.90
20204;DHT22;10261;49.010;12.034;2022-09-27T01:56:49;13.40;99.90
20204;DHT22;10261;49.010;12.034;2022-09-27T01:57:56;13.40;99.90
20204;DHT22;10261;49.010;12.034;2022-09-27T01:59:06;13.40;99.90
20204;DHT22;10261;49.010;12.034;2022-09-27T02:00:11;13.40;99.90
20204;DHT22;10261;49.010;12.034;2022-09-27T02:01:16;13.40;99.90
20204;DHT22;10261;49.010;12.034;2022-09-27T02:02:23;13.40;99.90
20204;DHT22;10261;49.010;12.034;2022-09-27T02:03:31;13.40;99.90
20204;DHT22;10261;49.010;12.034;2022-09-27T02:04:36;13.40;99.90
20204;DHT22;10261;49.010;12.034;2022-09-27T02:05:43;13.40;99.90
20204;DHT22;10261;49.010;12.034;2022-09-27T02:06:48;13.40;99.90
20204;DHT22;10261;49.010;12.034;2022-09-27T02:07:57;13.40;99.90
20204;DHT22;10261;49.010;12.034;2022-09-27T02:09:04;13.40;99.90
20204;DHT22;10261;49.010;12.034;2022-09-27T02:10:11;13.40;99.90
20204;DHT22;10261;49.010;12.034;2022-09-27T02:11:15;13.40;99.90
20204;DHT22;10261;49.010;12.034;2022-09-27T02:12:21;13.40;99.90
20204;DHT22;10261;49.010;12.034;2022-09-27T02:13:32;13.40;99.90
20204;DHT22;10261;49.010;12.034;2022-09-27T02:14:40;13.40;99.90
20204;DHT22;10261;49.010;12.034;2022-09-27T02:15:51;13.40;99.90
20204;DHT22;10261;49.010;12.034;2022-09-27T02:16:59;13.40;99.90
20204;DHT22;10261;49.010;12.034;2022-09-27T02:18:14;13.40;99.90
20204;DHT22;10261;49.010;12.034;2022-09-27T02:19:28;13.40;99.90
20204;DHT22;10261;49.010;12.034;2022-09-27T02:20:36;13.40;99.90
20204;DHT22;10261;49.010;12.034;2022-09-27T02:22:00;13.40;99.90
20204;DHT22;10261;49.010;12.034;2022-09-27T02:23:17;13.40;99.90
20204;DHT22;10261;49.010;12.034;2022-09-27T02:24:29;13.40;99.90
20204;DHT22;10261;49.010;12.034;2022-09-27T02:25:39;13.40;99.90
20204;DHT22;10261;49.010;12.034;2022-09-27T02:26:46;13.40;99.90
20204;DHT22;10261;49.010;12.034;2022-09-27T02:27:56;13.30;99.90
20204;DHT22;10261;49.010;12.034;2022-09-27T02:29:07;13.40;99.90
20204;DHT22;10261;49.010;12.034;2022-09-27T02:30:13;13.40;99.90
20204;DHT22;10261;49.010;12.034;2022-09-27T02:31:16;13.30;99.90
20204;DHT22;10261;49.010;12.034;2022-09-27T02:32:18;13.40;99.90
20204;DHT22;10261;49.010;12.034;2022-09-27T02:33:28;13.40;99.90
20204;DHT22;10261;49.010;12.034;2022-09-27T02:34:33;13.40;99.90
20204;DHT22;10261;49.010;12.034;2022-09-27T02:35:39;13.40;99.90
20204;DHT22;10261;49.010;12.034;2022-09-27T02:36:41;13.40;99.90
20204;DHT22;10261;49.010;12.034;2022-09-27T02:37:44;13.50;99.90
20204;DHT22;10261;49.010;12.034;2022-09-27T02:38:47;13.40;99.90
20204;DHT22;10261;49.010;12.034;2022-09-27T02:39:50;13.40;99.90
20204;DHT22;10261;49.010;12.034;2022-09-27T02:40:52;13.50;99.90
20204;DHT22;10261;49.010;12.034;2022-09-27T02:41:55;13.40;99.90
20204;DHT22;10261;49.010;12.034;2022-09-27T02:42:59;13.40;99.90
20204;DHT22;10261;49.010;12.034;2022-09-27T02:44:05;13.40;99.90
20204;DHT22;10261;49.010;12.034;2022-09-27T02:45:09;13.40;99.90
20204;DHT22;10261;49.010;12.034;2022-09-27T02:47:49;13.40;99.90
20204;DHT22;10261;49.010;12.034;2022-09-27T02:49:06;13.40;99.90
20204;DHT22;10261;49.010;12.034;2022-09-27T02:50:40;13.30;99.90
20204;DHT22;10261;49.010;12.034;2022-09-27T02:51:50;13.30;99.90
20204;DHT22;10261;49.010;12.034;2022-09-27T02:53:03;13.30;99.90
20204;DHT22;10261;49.010;12.034;2022-09-27T02:54:17;13.40;99.90
20204;DHT22;10261;49.010;12.034;2022-09-27T02:55:30;13.40;99.90
20204;DHT22;10261;49.010;12.034;2022-09-27T02:56:44;13.30;99.90
20204;DHT22;10261;49.010;12.034;2022-09-27T02:57:59;13.30;99.90
20204;DHT22;10261;49.010;12.034;2022-09-27T02:59:11;13.20;99.90
20204;DHT22;10261;49.010;12.034;2022-09-27T03:00:16;13.20;99.90
20204;DHT22;10261;49.010;12.034;2022-09-27T03:01:25;13.20;99.90
20204;DHT22;10261;49.010;12.034;2022-09-27T03:02:32;13.30;99.90
20204;DHT22;10261;49.010;12.034;2022-09-27T03:03:44;13.20;99.90
20204;DHT22;10261;49.010;12.034;2022-09-27T03:04:52;13.20;99.90
20204;DHT22;10261;49.010;12.034;2022-09-27T03:06:01;13.30;99.90
20204;DHT22;10261;49.010;12.034;2022-09-27T03:07:05;13.10;99.90
20204;DHT22;10261;49.010;12.034;2022-09-27T03:08:09;13.10;99.90
20204;DHT22;10261;49.010;12.034;2022-09-27T03:09:16;13.10;99.90
20204;DHT22;10261;49.010;12.034;2022-09-27T03:10:22;13.10;99.90
20204;DHT22;10261;49.010;12.034;2022-09-27T03:11:25;13.00;99.90
20204;DHT22;10261;49.010;12.034;2022-09-27T03:12:28;13.10;99.90
20204;DHT22;10261;49.010;12.034;2022-09-27T03:13:30;13.10;99.90
20204;DHT22;10261;49.010;12.034;2022-09-27T03:14:57;13.10;99.90
20204;DHT22;10261;49.010;12.034;2022-09-27T03:16:01;13.10;99.90
20204;DHT22;10261;49.010;12.034;2022-09-27T03:17:03;13.10;99.90
20204;DHT22;10261;49.010;12.034;2022-09-27T03:18:06;13.10;99.90
20204;DHT22;10261;49.010;12.034;2022-09-27T03:19:08;13.10;99.90
20204;DHT22;10261;49.010;12.034;2022-09-27T03:20:13;13.10;99.90
20204;DHT22;10261;49.010;12.034;2022-09-27T03:21:15;13.10;99.90
20204;DHT22;10261;49.010;12.034;2022-09-27T03:22:23;13.10;99.90
20204;DHT22;10261;49.010;12.034;2022-09-27T03:23:25;13.10;99.90
20204;DHT22;10261;49.010;12.034;2022-09-27T03:24:28;13.10;99.90
20204;DHT22;10261;49.010;12.034;2022-09-27T03:25:30;13.10;99.90
20204;DHT22;10261;49.010;12.034;2022-09-27T03:26:33;13.00;99.90
20204;DHT22;10261;49.010;12.034;2022-09-27T03:27:35;13.00;99.90
20204;DHT22;10261;49.010;12.034;2022-09-27T03:28:38;13.10;99.90
20204;DHT22;10261;49.010;12.034;2022-09-27T03:29:40;13.10;99.90
20204;DHT22;10261;49.010;12.034;2022-09-27T03:30:44;13.00;99.90
20204;DHT22;10261;49.010;12.034;2022-09-27T03:31:46;13.10;99.90
20204;DHT22;10261;49.010;12.034;2022-09-27T03:32:49;13.10;99.90
20204;DHT22;10261;49.010;12.034;2022-09-27T03:33:51;13.10;99.90
20204;DHT22;10261;49.010;12.034;2022-09-27T03:34:54;13.00;99.90
20204;DHT22;10261;49.010;12.034;2022-09-27T03:35:58;13.00;99.90
20204;DHT22;10261;49.010;12.034;2022-09-27T03:37:01;13.10;99.90
20204;DHT22;10261;49.010;12.034;2022-09-27T03:38:04;13.10;99.90
20204;DHT22;10261;49.010;12.034;2022-09-27T03:39:07;13.10;99.90
20204;DHT22;10261;49.010;12.034;2022-09-27T03:40:10;13.10;99.90
20204;DHT22;10261;49.010;12.034;2022-09-27T03:41:13;13.10;99.90
20204;DHT22;10261;49.010;12.034;2022-09-27T03:42:16;13.00;99.90
20204;DHT22;10261;49.010;12.034;2022-09-27T03:43:18;13.00;99.90
20204;DHT22;10261;49.010;12.034;2022-09-27T03:44:21;12.90;99.90
20204;DHT22;10261;49.010;12.034;2022-09-27T03:45:23;12.80;99.90
20204;DHT22;10261;49.010;12.034;2022-09-27T03:46:26;12.70;99.90
20204;DHT22;10261;49.010;12.034;2022-09-27T03:47:28;12.80;99.90
20204;DHT22;10261;49.010;12.034;2022-09-27T03:48:31;12.80;99.90
20204;DHT22;10261;49.010;12.034;2022-09-27T03:49:33;12.80;99.90
20204;DHT22;10261;49.010;12.034;2022-09-27T03:50:36;12.80;99.90
20204;DHT22;10261;49.010;12.034;2022-09-27T03:51:40;12.70;99.90
20204;DHT22;10261;49.010;12.034;2022-09-27T03:52:43;12.70;99.90
20204;DHT22;10261;49.010;12.034;2022-09-27T03:53:45;12.70;99.90
20204;DHT22;10261;49.010;12.034;2022-09-27T03:54:48;12.70;99.90
20204;DHT22;10261;49.010;12.034;2022-09-27T03:55:50;12.70;99.90
20204;DHT22;10261;49.010;12.034;2022-09-27T03:56:53;12.70;99.90
20204;DHT22;10261;49.010;12.034;2022-09-27T03:57:55;12.70;99.90
20204;DHT22;10261;49.010;12.034;2022-09-27T03:58:58;12.60;99.90
20204;DHT22;10261;49.010;12.034;2022-09-27T04:00:01;12.70;99.90
20204;DHT22;10261;49.010;12.034;2022-09-27T04:01:04;12.70;99.90
20204;DHT22;10261;49.010;12.034;2022-09-27T04:02:06;12.70;99.90
20204;DHT22;10261;49.010;12.034;2022-09-27T04:03:09;12.80;99.90
20204;DHT22;10261;49.010;12.034;2022-09-27T04:04:12;12.80;99.90
20204;DHT22;10261;49.010;12.034;2022-09-27T04:05:15;12.70;99.90
20204;DHT22;10261;49.010;12.034;2022-09-27T04:06:17;12.70;99.90
20204;DHT22;10261;49.010;12.034;2022-09-27T04:07:22;12.70;99.90
20204;DHT22;10261;49.010;12.034;2022-09-27T04:08:24;12.80;99.90
20204;DHT22;10261;49.010;12.034;2022-09-27T04:09:27;12.80;99.90
20204;DHT22;10261;49.010;12.034;2022-09-27T04:10:29;12.80;99.90
20204;DHT22;10261;49.010;12.034;2022-09-27T04:11:32;12.80;99.90
20204;DHT22;10261;49.010;12.034;2022-09-27T04:12:34;12.80;99.90
20204;DHT22;10261;49.010;12.034;2022-09-27T04:13:37;12.70;99.90
20204;DHT22;10261;49.010;12.034;2022-09-27T04:14:40;12.80;99.90
20204;DHT22;10261;49.010;12.034;2022-09-27T04:15:43;12.70;99.90
20204;DHT22;10261;49.010;12.034;2022-09-27T04:16:50;12.70;99.90
20204;DHT22;10261;49.010;12.034;2022-09-27T04:17:53;12.70;99.90
20204;DHT22;10261;49.010;12.034;2022-09-27T04:18:55;12.70;99.90
20204;DHT22;10261;49.010;12.034;2022-09-27T04:19:59;12.80;99.90
20204;DHT22;10261;49.010;12.034;2022-09-27T04:21:01;12.80;99.90
20204;DHT22;10261;49.010;12.034;2022-09-27T04:22:04;12.80;99.90
20204;DHT22;10261;49.010;12.034;2022-09-27T04:23:07;12.80;99.90
20204;DHT22;10261;49.010;12.034;2022-09-27T04:24:10;12.80;99.90
20204;DHT22;10261;49.010;12.034;2022-09-27T04:25:13;12.80;99.90
20204;DHT22;10261;49.010;12.034;2022-09-27T04:26:16;12.80;99.90
20204;DHT22;10261;49.010;12.034;2022-09-27T04:27:18;12.80;99.90
20204;DHT22;10261;49.010;12.034;2022-09-27T04:28:22;12.80;99.90
20204;DHT22;10261;49.010;12.034;2022-09-27T04:29:24;12.80;99.90
20204;DHT22;10261;49.010;12.034;2022-09-27T04:30:28;12.80;99.90
20204;DHT22;10261;49.010;12.034;2022-09-27T04:31:30;12.80;99.90
20204;DHT22;10261;49.010;12.034;2022-09-27T04:32:33;12.80;99.90
20204;DHT22;10261;49.010;12.034;2022-09-27T04:33:35;12.80;99.90
20204;DHT22;10261;49.010;12.034;2022-09-27T04:34:39;12.80;99.90
20204;DHT22;10261;49.010;12.034;2022-09-27T04:36:16;12.80;99.90
20204;DHT22;10261;49.010;12.034;2022-09-27T04:37:27;12.80;99.90
20204;DHT22;10261;49.010;12.034;2022-09-27T04:38:31;12.90;99.90
20204;DHT22;10261;49.010;12.034;2022-09-27T04:39:33;12.90;99.90
20204;DHT22;10261;49.010;12.034;2022-09-27T04:40:37;12.90;99.90
20204;DHT22;10261;49.010;12.034;2022-09-27T04:41:39;12.90;99.90
20204;DHT22;10261;49.010;12.034;2022-09-27T04:42:42;13.00;99.90
20204;DHT22;10261;49.010;12.034;2022-09-27T04:43:44;13.00;99.90
20204;DHT22;10261;49.010;12.034;2022-09-27T04:44:47;13.10;99.90
20204;DHT22;10261;49.010;12.034;2022-09-27T04:45:49;13.00;99.90
20204;DHT22;10261;49.010;12.034;2022-09-27T04:46:52;13.10;99.90
20204;DHT22;10261;49.010;12.034;2022-09-27T04:47:55;13.00;99.90
20204;DHT22;10261;49.010;12.034;2022-09-27T04:48:58;12.90;99.90
20204;DHT22;10261;49.010;12.034;2022-09-27T04:50:00;12.90;99.90
20204;DHT22;10261;49.010;12.034;2022-09-27T04:51:03;12.90;99.90
20204;DHT22;10261;49.010;12.034;2022-09-27T04:52:05;13.00;99.90
20204;DHT22;10261;49.010;12.034;2022-09-27T04:53:11;13.00;99.90
20204;DHT22;10261;49.010;12.034;2022-09-27T04:54:16;12.90;99.90
20204;DHT22;10261;49.010;12.034;2022-09-27T04:55:20;12.90;99.90
20204;DHT22;10261;49.010;12.034;2022-09-27T04:56:22;12.90;99.90
20204;DHT22;10261;49.010;12.034;2022-09-27T04:57:25;12.90;99.90
20204;DHT22;10261;49.010;12.034;2022-09-27T04:58:27;13.00;99.90
20204;DHT22;10261;49.010;12.034;2022-09-27T04:59:30;13.00;99.90
20204;DHT22;10261;49.010;12.034;2022-09-27T05:00:33;13.00;99.90
20204;DHT22;10261;49.010;12.034;2022-09-27T05:01:35;13.00;99.90
20204;DHT22;10261;49.010;12.034;2022-09-27T05:02:39;13.00;99.90
20204;DHT22;10261;49.010;12.034;2022-09-27T05:03:41;13.00;99.90
20204;DHT22;10261;49.010;12.034;2022-09-27T05:04:44;13.00;99.90
20204;DHT22;10261;49.010;12.034;2022-09-27T05:05:46;12.90;99.90
20204;DHT22;10261;49.010;12.034;2022-09-27T05:06:49;12.90;99.90
20204;DHT22;10261;49.010;12.034;2022-09-27T05:07:57;13.00;99.90
20204;DHT22;10261;49.010;12.034;2022-09-27T05:09:01;13.00;99.90
20204;DHT22;10261;49.010;12.034;2022-09-27T05:10:05;13.00;99.90
20204;DHT22;10261;49.010;12.034;2022-09-27T05:11:08;13.10;99.90
20204;DHT22;10261;49.010;12.034;2022-09-27T05:12:10;13.10;99.90
20204;DHT22;10261;49.010;12.034;2022-09-27T05:13:14;13.00;99.90
20204;DHT22;10261;49.010;12.034;2022-09-27T05:14:16;13.00;99.90
20204;DHT22;10261;49.010;12.034;2022-09-27T05:15:19;13.00;99.90
20204;DHT22;10261;49.010;12.034;2022-09-27T05:16:21;13.00;99.90
20204;DHT22;10261;49.010;12.034;2022-09-27T05:17:25;13.10;99.90
20204;DHT22;10261;49.010;12.034;2022-09-27T05:18:28;13.00;99.90
20204;DHT22;10261;49.010;12.034;2022-09-27T05:19:31;13.00;99.90
20204;DHT22;10261;49.010;12.034;2022-09-27T05:20:34;13.10;99.90
20204;DHT22;10261;49.010;12.034;2022-09-27T05:21:37;13.10;99.90
20204;DHT22;10261;49.010;12.034;2022-09-27T05:22:39;13.10;99.90
20204;DHT22;10261;49.010;12.034;2022-09-27T05:23:42;13.00;99.90
20204;DHT22;10261;49.010;12.034;2022-09-27T05:24:48;13.00;99.90
20204;DHT22;10261;49.010;12.034;2022-09-27T05:25:52;13.00;99.90
20204;DHT22;10261;49.010;12.034;2022-09-27T05:26:57;13.00;99.90
20204;DHT22;10261;49.010;12.034;2022-09-27T05:27:59;13.00;99.90
20204;DHT22;10261;49.010;12.034;2022-09-27T05:29:02;13.10;99.90
20204;DHT22;10261;49.010;12.034;2022-09-27T05:30:06;13.00;99.90
20204;DHT22;10261;49.010;12.034;2022-09-27T05:31:09;13.00;99.90
20204;DHT22;10261;49.010;12.034;2022-09-27T05:32:12;13.10;99.90
20204;DHT22;10261;49.010;12.034;2022-09-27T05:33:15;13.00;99.90
20204;DHT22;10261;49.010;12.034;2022-09-27T05:34:18;13.00;99.90
20204;DHT22;10261;49.010;12.034;2022-09-27T05:35:21;13.00;99.90
20204;DHT22;10261;49.010;12.034;2022-09-27T05:36:24;13.00;99.90
20204;DHT22;10261;49.010;12.034;2022-09-27T05:37:26;13.00;99.90
20204;DHT22;10261;49.010;12.034;2022-09-27T05:38:30;13.10;99.90
20204;DHT22;10261;49.010;12.034;2022-09-27T05:39:32;13.10;99.90
20204;DHT22;10261;49.010;12.034;2022-09-27T05:40:35;13.10;99.90
20204;DHT22;10261;49.010;12.034;2022-09-27T05:41:44;13.00;99.90
20204;DHT22;10261;49.010;12.034;2022-09-27T05:42:48;13.00;99.90
20204;DHT22;10261;49.010;12.034;2022-09-27T05:43:51;13.10;99.90
20204;DHT22;10261;49.010;12.034;2022-09-27T05:44:54;13.10;99.90
20204;DHT22;10261;49.010;12.034;2022-09-27T05:45:56;13.00;99.90
20204;DHT22;10261;49.010;12.034;2022-09-27T05:46:59;13.10;99.90
20204;DHT22;10261;49.010;12.034;2022-09-27T05:48:02;13.10;99.90
20204;DHT22;10261;49.010;12.034;2022-09-27T05:49:05;13.10;99.90
20204;DHT22;10261;49.010;12.034;2022-09-27T05:50:08;13.10;99.90
20204;DHT22;10261;49.010;12.034;2022-09-27T05:51:11;13.10;99.90
20204;DHT22;10261;49.010;12.034;2022-09-27T05:52:13;13.10;99.90
20204;DHT22;10261;49.010;12.034;2022-09-27T05:53:19;13.10;99.90
20204;DHT22;10261;49.010;12.034;2022-09-27T05:54:22;13.10;99.90
20204;DHT22;10261;49.010;12.034;2022-09-27T05:55:25;13.10;99.90
20204;DHT22;10261;49.010;12.034;2022-09-27T05:56:27;13.10;99.90
20204;DHT22;10261;49.010;12.034;2022-09-27T05:57:31;13.10;99.90
20204;DHT22;10261;49.010;12.034;2022-09-27T05:58:35;13.10;99.90
20204;DHT22;10261;49.010;12.034;2022-09-27T05:59:38;13.20;99.90
20204;DHT22;10261;49.010;12.034;2022-09-27T06:00:42;13.10;99.90
20204;DHT22;10261;49.010;12.034;2022-09-27T06:01:45;13.10;99.90
20204;DHT22;10261;49.010;12.034;2022-09-27T06:02:52;13.10;99.90
20204;DHT22;10261;49.010;12.034;2022-09-27T06:03:55;13.10;99.90
20204;DHT22;10261;49.010;12.034;2022-09-27T06:04:58;14.20;99.90
20204;DHT22;10261;49.010;12.034;2022-09-27T06:06:02;12.90;99.90
20204;DHT22;10261;49.010;12.034;2022-09-27T06:07:06;12.80;99.90
20204;DHT22;10261;49.010;12.034;2022-09-27T06:08:10;12.90;99.90
20204;DHT22;10261;49.010;12.034;2022-09-27T06:09:15;12.90;99.90
20204;DHT22;10261;49.010;12.034;2022-09-27T06:10:18;12.90;99.90
20204;DHT22;10261;49.010;12.034;2022-09-27T06:11:21;12.90;99.90
20204;DHT22;10261;49.010;12.034;2022-09-27T06:12:24;13.00;99.90
20204;DHT22;10261;49.010;12.034;2022-09-27T06:13:28;13.00;99.90
20204;DHT22;10261;49.010;12.034;2022-09-27T06:14:30;13.00;99.90
20204;DHT22;10261;49.010;12.034;2022-09-27T06:15:36;13.00;99.90
20204;DHT22;10261;49.010;12.034;2022-09-27T06:16:39;13.00;99.90
20204;DHT22;10261;49.010;12.034;2022-09-27T06:17:43;12.90;99.90
20204;DHT22;10261;49.010;12.034;2022-09-27T06:18:45;13.00;99.90
20204;DHT22;10261;49.010;12.034;2022-09-27T06:19:48;13.00;99.90
20204;DHT22;10261;49.010;12.034;2022-09-27T06:20:50;12.90;99.90
20204;DHT22;10261;49.010;12.034;2022-09-27T06:21:53;12.90;99.90
20204;DHT22;10261;49.010;12.034;2022-09-27T06:23:02;13.00;99.90
20204;DHT22;10261;49.010;12.034;2022-09-27T06:24:06;13.00;99.90
20204;DHT22;10261;49.010;12.034;2022-09-27T06:25:09;13.00;99.90
20204;DHT22;10261;49.010;12.034;2022-09-27T06:26:11;12.90;99.90
20204;DHT22;10261;49.010;12.034;2022-09-27T06:27:14;12.90;99.90
20204;DHT22;10261;49.010;12.034;2022-09-27T06:28:17;12.90;99.90
20204;DHT22;10261;49.010;12.034;2022-09-27T06:29:21;12.90;99.90
20204;DHT22;10261;49.010;12.034;2022-09-27T06:30:23;12.90;99.90
20204;DHT22;10261;49.010;12.034;2022-09-27T06:31:27;12.90;99.90
20204;DHT22;10261;49.010;12.034;2022-09-27T06:32:29;12.90;99.90
20204;DHT22;10261;49.010;12.034;2022-09-27T06:33:33;12.90;99.90
20204;DHT22;10261;49.010;12.034;2022-09-27T06:34:36;12.90;99.90
20204;DHT22;10261;49.010;12.034;2022-09-27T06:35:39;12.80;99.90
20204;DHT22;10261;49.010;12.034;2022-09-27T06:36:42;12.80;99.90
20204;DHT22;10261;49.010;12.034;2022-09-27T06:37:51;12.80;99.90
20204;DHT22;10261;49.010;12.034;2022-09-27T06:38:54;12.80;99.90
20204;DHT22;10261;49.010;12.034;2022-09-27T06:39:57;12.80;99.90
20204;DHT22;10261;49.010;12.034;2022-09-27T06:41:00;12.90;99.90
20204;DHT22;10261;49.010;12.034;2022-09-27T06:42:04;12.80;99.90
20204;DHT22;10261;49.010;12.034;2022-09-27T06:43:08;12.90;99.90
20204;DHT22;10261;49.010;12.034;2022-09-27T06:44:12;12.80;99.90
20204;DHT22;10261;49.010;12.034;2022-09-27T06:45:16;12.80;99.90
20204;DHT22;10261;49.010;12.034;2022-09-27T06:46:18;12.90;99.90
20204;DHT22;10261;49.010;12.034;2022-09-27T06:47:21;12.90;99.90
20204;DHT22;10261;49.010;12.034;2022-09-27T06:48:24;12.90;99.90
20204;DHT22;10261;49.010;12.034;2022-09-27T06:49:27;12.90;99.90
20204;DHT22;10261;49.010;12.034;2022-09-27T06:50:30;12.90;99.90
20204;DHT22;10261;49.010;12.034;2022-09-27T06:51:34;12.90;99.90
20204;DHT22;10261;49.010;12.034;2022-09-27T06:52:37;13.00;99.90